Flight Track Log - Related Links

Times and Time Zones

All times are in EDT time to prevent confusion due to time zone crossing. See the UAL1070 flight status page for this flight to view local times or setup timezone preferences in your user account.

Time Position Orientation Groundspeed Altitude Reporting Facility
EDT Latitude Longitude Course Direction KTS MPH feet Rate Location/Type
Tue 10:05:37 PM 39.8428 -104.7391 288° West 192 221 6,700  Level FlightAware ADS-B (EGHH / BOH)
Tue 10:06:01 PM 39.8522 -104.7631 298° West 221 254 7,200 1,227 Climbing FlightAware ADS-B (EGHH / BOH)
Tue 10:06:21 PM 39.8638 -104.7909 299° West 253 291 7,600 1,500 Climbing FlightAware ADS-B (EGHH / BOH)
Tue 10:06:41 PM 39.8750 -104.8172 298° West 273 314 8,200 2,182 Climbing FlightAware ADS-B (EGHH / BOH)
Tue 10:07:05 PM 39.8904 -104.8542 298° West 283 326 9,200 2,372 Climbing FlightAware ADS-B (EGHH / BOH)
Tue 10:07:24 PM 39.9032 -104.8842 303° West 300 345 9,900 1,200 Climbing FlightAware ADS-B (EGHH / BOH)
Tue 10:07:45 PM 39.9225 -104.9118 319° Northwest 330 380 10,000 1,781 Climbing FlightAware ADS-B (EGHH / BOH)
Tue 10:08:28 PM 39.9820 -104.9607 329° Northwest 342 394 11,800 2,690 Climbing FlightAware ADS-B (EGHH / BOH)
Tue 10:09:12 PM 40.0406 -105.0060 330° Northwest 351 404 13,900 2,889 Climbing FlightAware ADS-B (EGHH / BOH)
Tue 10:09:49 PM 40.0968 -105.0405 350° North 364 419 15,700 3,200 Climbing FlightAware ADS-B
Tue 10:10:12 PM 40.1355 -105.0433 North 364 419 17,100 2,906 Climbing FlightAware ADS-B (EGHH / BOH)
Tue 10:10:53 PM 40.2054 -105.0266 13° North 380 437 18,800 2,370 Climbing FlightAware ADS-B
Tue 10:11:33 PM 40.2762 -105.0048 13° North 393 452 20,300 2,122 Climbing FlightAware ADS-B (EGHH / BOH)
Tue 10:12:15 PM 40.3488 -104.9832 13° North 403 464 21,700 1,786 Climbing FlightAware ADS-B (EGHH / BOH)
Tue 10:12:57 PM 40.4272 -104.9593 14° North 423 487 22,800 1,756 Climbing FlightAware ADS-B (EGHH / BOH)
Tue 10:13:37 PM 40.5012 -104.9360 12° North 434 499 24,100 1,792 Climbing FlightAware ADS-B (EGHH / BOH)
Tue 10:14:14 PM 40.5740 -104.9151 13° North 443 510 25,100 1,739 Climbing FlightAware ADS-B (EGHH / BOH)
Tue 10:14:46 PM 40.6364 -104.8962 13° North 447 514 26,100 2,182 Climbing FlightAware ADS-B
Tue 10:15:20 PM 40.7063 -104.8746 13° North 435 501 27,500 2,384 Climbing FlightAware ADS-B (EGHH / BOH)
Tue 10:15:59 PM 40.7878 -104.8599 356° North 423 487 29,000 1,932 Climbing FlightAware ADS-B (EGHH / BOH)
Tue 10:16:19 PM 40.8225 -104.8700 342° North 421 484 29,400 1,132 Climbing FlightAware ADS-B (EGHH / BOH)
Tue 10:16:52 PM 40.8830 -104.9060 333° Northwest 420 483 30,000 468 Climbing FlightAware ADS-B
Tue 10:17:36 PM 40.9570 -104.9564 333° Northwest 433 498 30,000  Level FlightAware ADS-B
Tue 10:18:15 PM 41.0294 -105.0052 333° Northwest 435 501 30,000  Level FlightAware ADS-B
Tue 10:18:58 PM 41.1071 -105.0581 333° Northwest 435 501 30,000 674 Level FlightAware ADS-B
Tue 10:19:44 PM 41.1874 -105.1128 333° Northwest 437 503 31,000 1,200 Climbing FlightAware ADS-B
Tue 10:20:23 PM 41.2518 -105.1567 333° Northwest 442 509 31,700 1,185 Climbing FlightAware ADS-B
Tue 10:21:05 PM 41.3361 -105.2139 333° Northwest 448 516 32,600 1,286 Climbing FlightAware ADS-B
Tue 10:21:47 PM 41.4089 -105.2639 333° Northwest 450 518 33,500 1,050 Climbing FlightAware ADS-B (EGHH / BOH)
Tue 10:22:25 PM 41.4840 -105.3156 333° Northwest 450 518 34,000 370 Climbing FlightAware ADS-B (EGHH / BOH)
Tue 10:23:08 PM 41.5639 -105.3708 333° Northwest 456 525 34,000  Level FlightAware ADS-B (EGHH / BOH)
Tue 10:23:49 PM 41.6375 -105.4216 333° Northwest 456 525 34,000  Level FlightAware ADS-B (EGHH / BOH)
Tue 10:24:29 PM 41.7126 -105.4736 333° Northwest 458 527 34,000  Level FlightAware ADS-B (EGHH / BOH)
Tue 10:25:08 PM 41.7889 -105.5266 333° Northwest 456 525 34,000  Level FlightAware ADS-B (EGHH / BOH)
Tue 10:25:49 PM 41.8613 -105.5770 333° Northwest 455 524 34,000 169 Level FlightAware ADS-B (EGHH / BOH)
Tue 10:26:19 PM 41.9209 -105.6183 333° Northwest 458 527 34,200 659 Climbing FlightAware ADS-B (EGHH / BOH)
Tue 10:27:11 PM 42.0186 -105.6866 332° Northwest 461 531 34,900 1,011 Climbing FlightAware ADS-B (EGHH / BOH)
Tue 10:27:48 PM 42.0817 -105.7309 332° Northwest 461 531 35,700 835 Climbing FlightAware ADS-B (EGHH / BOH)
Tue 10:28:30 PM 42.1616 -105.7873 332° Northwest 458 527 36,000 212 Climbing FlightAware ADS-B (EGHH / BOH)
Tue 10:29:13 PM 42.2438 -105.8458 332° Northwest 459 528 36,000  Level FlightAware ADS-B (EGHH / BOH)
Tue 10:30:11 PM 42.3487 -105.9203 332° Northwest 449 517 36,000  Level FlightAware ADS-B (EGHH / BOH)
Tue 10:30:51 PM 42.4297 -105.9776 332° Northwest 448 516 36,000 -146 Level FlightAware ADS-B (EGHH / BOH)
Tue 10:31:33 PM 42.5027 -106.0294 332° Northwest 449 517 35,800 -651 Descending FlightAware ADS-B (EGHH / BOH)
Tue 10:32:14 PM 42.5794 -106.0844 332° Northwest 455 524 35,100 -987 Descending FlightAware ADS-B (EGHH / BOH)
Tue 10:32:52 PM 42.6518 -106.1360 332° Northwest 457 526 34,500 -987 Descending FlightAware ADS-B (EGHH / BOH)
Tue 10:33:33 PM 42.7293 -106.1919 332° Northwest 458 527 33,800 -900 Descending FlightAware ADS-B (EGHH / BOH)
Tue 10:34:52 PM 42.8672 -106.2942 332° Northwest 458 527 32,700 -898 Descending Salt Lake Center
Tue 10:36:00 PM 42.9967 -106.3853 333° Northwest 464 534 31,600 -923 Descending Denver Center
Tue 10:37:02 PM 43.1058 -106.4636 332° Northwest 464 534 30,700 -780 Descending Denver Center
Tue 10:38:03 PM 43.2300 -106.5572 331° Northwest 461 531 30,000 -341 Descending Denver Center
Tue 10:39:05 PM 43.3406 -106.6369 332° Northwest 463 533 30,000  Level Denver Center
Tue 10:40:00 PM 43.4508 -106.7200 331° Northwest 468 539 30,000  Level Salt Lake Center
Tue 10:41:02 PM 43.5592 -106.8000 332° Northwest 466 536 30,000  Level Salt Lake Center
Tue 10:42:09 PM 43.6808 -106.8883 332° Northwest 462 532 30,000  Level Denver Center
Tue 10:43:10 PM 43.7942 -106.9742 331° Northwest 463 533 30,000  Level Denver Center
Tue 10:44:12 PM 43.9319 -107.0764 332° Northwest 466 536 30,000  Level Denver Center
Tue 10:45:09 PM 44.0228 -107.1450 331° Northwest 471 542 30,000  Level Salt Lake Center
Tue 10:46:10 PM 44.1486 -107.2014 342° North 473 544 30,000  Level Salt Lake Center
Tue 10:47:12 PM 44.2983 -107.2719 341° North 474 545 30,000  Level Salt Lake Center
Tue 10:48:13 PM 44.4239 -107.3292 342° North 476 548 30,000 -909 Level Salt Lake Center
Tue 10:54:08 PM 45.1524 -107.6881 341° North 460 529 23,700 -1,259 Descending FlightAware ADS-B (KBIL)
Tue 10:55:03 PM 45.2410 -107.7612 325° Northwest 416 479 21,400 -2,667 Descending FlightAware ADS-B (KBIL)
Tue 10:55:38 PM 45.2999 -107.8204 325° Northwest 404 465 19,700 -3,000 Descending FlightAware ADS-B (KBIL)
Tue 10:56:09 PM 45.3458 -107.8665 325° Northwest 401 461 18,100 -3,243 Descending FlightAware ADS-B (KBIL)
Tue 10:56:52 PM 45.4106 -107.9317 325° Northwest 403 464 15,700 -3,127 Descending FlightAware ADS-B (KBIL)
Tue 10:57:20 PM 45.4524 -107.9737 325° Northwest 397 457 14,400 -2,500 Descending FlightAware ADS-B (KBIL)
Tue 10:57:52 PM 45.4977 -108.0190 325° Northwest 383 441 13,200 -2,464 Descending FlightAware ADS-B (KBIL)
Tue 10:58:16 PM 45.5318 -108.0536 325° Northwest 373 429 12,100 -2,644 Descending FlightAware ADS-B (KBIL)
Tue 10:58:51 PM 45.5826 -108.1057 325° Northwest 359 413 10,600 -1,765 Descending FlightAware ADS-B (KBIL)
Tue 10:59:24 PM 45.6252 -108.1485 325° Northwest 332 382 10,100 -750 Descending FlightAware ADS-B (KBIL)
Tue 10:59:47 PM 45.6535 -108.1775 325° Northwest 307 353 9,900 -462 Descending FlightAware ADS-B (KBIL)
Tue 11:00:03 PM 45.6712 -108.1958 325° Northwest 292 336 9,800 -387 Descending FlightAware ADS-B (KBIL)
Tue 11:00:18 PM 45.6885 -108.2133 325° Northwest 276 318 9,700 -1,000 Descending FlightAware ADS-B (KBIL)
Tue 11:00:33 PM 45.7029 -108.2280 324° Northwest 266 306 9,300 -2,400 Descending FlightAware ADS-B (KBIL)
Tue 11:00:48 PM 45.7181 -108.2442 324° Northwest 268 308 8,500 -3,500 Descending FlightAware ADS-B (KBIL)
Tue 11:00:57 PM 45.7263 -108.2550 312° West 273 314 7,900 -3,231 Descending FlightAware ADS-B (KBIL)
Tue 11:01:01 PM 45.7290 -108.2604 303° West 274 315 7,800 -1,800 Descending FlightAware ADS-B (KBIL)
Tue 11:01:07 PM 45.7320 -108.2693 294° West 269 310 7,600 -1,364 Descending FlightAware ADS-B (KBIL)
Tue 11:01:23 PM 45.7393 -108.2961 293° West 248 285 7,300 -1,655 Descending FlightAware ADS-B (KBIL)
Tue 11:01:36 PM 45.7452 -108.3149 294° West 242 278 6,800 -1,929 Descending FlightAware ADS-B (KBIL)
Tue 11:01:51 PM 45.7516 -108.3356 295° West 227 261 6,400 -1,313 Descending FlightAware ADS-B (KBIL)
Tue 11:02:08 PM 45.7586 -108.3576 294° West 196 226 6,100 -1,091 Descending FlightAware ADS-B (KBIL)
Tue 11:02:24 PM 45.7632 -108.3750 290° West 179 206 5,800 -1,071 Descending FlightAware ADS-B (KBIL)
Tue 11:02:36 PM 45.7663 -108.3890 289° West 168 193 5,600 -1,034 Descending FlightAware ADS-B (KBIL)
Tue 11:02:53 PM 45.7706 -108.4051 291° West 155 178 5,300 -1,125 Descending FlightAware ADS-B (KBIL)
Tue 11:03:08 PM 45.7746 -108.4190 293° West 151 174 5,000 -1,000 Descending FlightAware ADS-B (KBIL)
Tue 11:03:23 PM 45.7786 -108.4329 293° West 146 168 4,800 -706 Descending FlightAware ADS-B (KBIL)
Tue 11:03:42 PM 45.7833 -108.4495 293° West 144 166 4,600 -727 Descending FlightAware ADS-B (KBIL)
Tue 11:03:56 PM 45.7869 -108.4621 293° West 147 169 4,400 -774 Descending FlightAware ADS-B (KBIL)
Tue 11:04:13 PM 45.7911 -108.4772 293° West 145 167 4,200 -686 Descending FlightAware ADS-B (KBIL)
Tue 11:04:31 PM 45.7958 -108.4938 293° West 146 168 4,000 -686 Descending FlightAware ADS-B (KBIL)
Tue 11:04:48 PM 45.7998 -108.5085 292° West 145 167 3,800 -581 Descending FlightAware ADS-B (KBIL)
Tue 11:05:02 PM 45.8032 -108.5205 292° West 145 167 3,700 -429 Descending FlightAware ADS-B (KBIL)

Login

Don't have an account? Register now (free) for customized features, flight alerts, and more!